createdAt,value
2018-10-06T00:01:57.855Z,3.93
2018-10-06T00:04:26.191Z,3.60
2018-10-06T00:06:55.439Z,3.70
2018-10-06T00:09:23.839Z,3.73
2018-10-06T00:11:52.491Z,3.60
2018-10-06T00:14:20.978Z,3.90
2018-10-06T00:16:49.317Z,3.93
2018-10-06T00:19:17.783Z,3.73
2018-10-06T00:21:46.165Z,3.40
2018-10-06T00:24:14.487Z,3.50
2018-10-06T00:26:42.940Z,3.53
2018-10-06T00:29:11.627Z,3.50
2018-10-06T00:31:39.993Z,3.60
2018-10-06T00:34:09.271Z,3.70
2018-10-06T00:36:37.873Z,4.23
2018-10-06T00:39:06.945Z,4.30
2018-10-06T00:41:35.267Z,5.60
2018-10-06T00:44:03.659Z,4.97
2018-10-06T00:46:32.001Z,5.67
2018-10-06T00:49:01.236Z,4.97
2018-10-06T00:51:29.597Z,5.23
2018-10-06T00:53:58.027Z,4.60
2018-10-06T00:56:28.227Z,4.97
2018-10-06T00:58:56.615Z,5.63
2018-10-06T01:01:26.103Z,4.93
2018-10-06T01:03:55.187Z,4.30
2018-10-06T01:06:23.760Z,4.63
2018-10-06T01:08:52.122Z,4.10
2018-10-06T01:11:20.579Z,4.30
2018-10-06T01:13:48.921Z,3.97
2018-10-06T01:16:17.681Z,4.43
2018-10-06T01:18:46.123Z,3.97
2018-10-06T01:21:14.559Z,4.43
2018-10-06T01:23:43.027Z,4.83
2018-10-06T01:26:11.485Z,4.43
2018-10-06T01:28:40.052Z,4.20
2018-10-06T01:31:08.363Z,4.00
2018-10-06T01:33:36.730Z,4.30
2018-10-06T01:36:05.214Z,4.43
2018-10-06T01:38:33.761Z,4.47
2018-10-06T01:41:02.219Z,4.10
2018-10-06T01:43:30.588Z,4.03
2018-10-06T01:45:58.921Z,3.80
2018-10-06T01:48:27.330Z,4.17
2018-10-06T01:50:55.653Z,5.07
2018-10-06T01:53:23.887Z,5.10
2018-10-06T01:55:52.238Z,4.30
2018-10-06T01:58:22.019Z,3.90
2018-10-06T02:00:50.318Z,5.00
2018-10-06T02:03:18.722Z,5.37
2018-10-06T02:05:47.075Z,5.20
2018-10-06T02:08:16.164Z,5.40
2018-10-06T02:10:44.748Z,5.10
2018-10-06T02:13:13.362Z,5.03
2018-10-06T02:15:41.778Z,4.80
2018-10-06T02:18:10.098Z,4.03
2018-10-06T02:20:38.682Z,4.10
2018-10-06T02:23:07.274Z,4.33
2018-10-06T02:25:35.654Z,3.97
2018-10-06T02:28:04.146Z,4.53
2018-10-06T02:30:32.528Z,4.07
2018-10-06T02:33:01.199Z,3.60
2018-10-06T02:35:29.529Z,4.10
2018-10-06T02:37:57.935Z,4.43
2018-10-06T02:40:26.323Z,3.80
2018-10-06T02:42:54.939Z,4.53
2018-10-06T02:45:23.282Z,4.10
2018-10-06T02:47:51.539Z,4.60
2018-10-06T02:50:19.895Z,5.20
2018-10-06T02:52:48.491Z,5.47
2018-10-06T02:55:16.788Z,4.90
2018-10-06T02:57:45.169Z,4.40
2018-10-06T03:00:13.554Z,4.93
2018-10-06T03:02:42.237Z,4.70
2018-10-06T03:05:10.656Z,4.80
2018-10-06T03:07:38.998Z,4.50
2018-10-06T03:10:07.379Z,4.23
2018-10-06T03:12:35.770Z,4.20
2018-10-06T03:15:04.246Z,4.43
2018-10-06T03:17:32.618Z,3.90
2018-10-06T03:20:01.015Z,4.13
2018-10-06T03:22:29.446Z,4.47
2018-10-06T03:24:57.757Z,4.20
2018-10-06T03:27:26.363Z,4.37
2018-10-06T03:29:54.714Z,4.10
2018-10-06T03:32:24.105Z,3.80
2018-10-06T03:34:52.789Z,3.40
2018-10-06T03:37:21.418Z,3.67
2018-10-06T03:39:49.828Z,3.47
2018-10-06T03:42:18.374Z,4.40
2018-10-06T03:44:46.661Z,3.77
2018-10-06T03:47:14.922Z,3.90
2018-10-06T03:49:43.222Z,4.07
2018-10-06T03:52:11.514Z,4.17
2018-10-06T03:54:39.902Z,4.57
2018-10-06T03:57:08.254Z,4.40
2018-10-06T03:59:36.518Z,3.80
2018-10-06T04:02:04.859Z,3.93
2018-10-06T04:04:35.338Z,4.13
2018-10-06T04:07:03.645Z,4.10
2018-10-06T04:09:32.174Z,4.37
2018-10-06T04:12:00.729Z,4.77
2018-10-06T04:14:30.077Z,4.40
2018-10-06T04:16:58.378Z,3.60
2018-10-06T04:19:27.022Z,4.07
2018-10-06T04:21:55.374Z,3.70
2018-10-06T04:24:23.758Z,3.70
2018-10-06T04:26:52.399Z,3.83
2018-10-06T04:29:21.075Z,4.20
2018-10-06T04:31:49.470Z,4.27
2018-10-06T04:34:17.794Z,4.57
2018-10-06T04:36:46.862Z,3.93
2018-10-06T04:39:15.898Z,4.50
2018-10-06T04:41:44.518Z,4.20
2018-10-06T04:44:12.798Z,4.00
2018-10-06T04:46:41.382Z,3.97
2018-10-06T04:49:09.843Z,3.60
2018-10-06T04:51:38.701Z,3.57
2018-10-06T04:54:07.482Z,3.57
2018-10-06T04:56:35.954Z,3.27
2018-10-06T04:59:04.365Z,3.37
2018-10-06T05:01:32.710Z,4.33
2018-10-06T05:04:01.399Z,4.17
2018-10-06T05:06:29.763Z,5.27
2018-10-06T05:08:58.134Z,4.70
2018-10-06T05:11:26.542Z,4.40
2018-10-06T05:13:54.886Z,4.43
2018-10-06T05:16:23.280Z,4.90
2018-10-06T05:18:51.975Z,4.50
2018-10-06T05:21:20.275Z,4.07
2018-10-06T05:23:48.542Z,3.67
2018-10-06T05:26:16.919Z,4.00
2018-10-06T05:28:45.375Z,3.67
2018-10-06T05:31:13.859Z,4.20
2018-10-06T05:33:42.290Z,4.03
2018-10-06T05:36:10.578Z,3.63
2018-10-06T05:38:38.889Z,3.40
2018-10-06T05:41:07.459Z,3.80
2018-10-06T05:43:35.947Z,4.00
2018-10-06T05:46:04.235Z,4.37
2018-10-06T05:48:32.743Z,4.20
2018-10-06T05:51:01.112Z,4.17
2018-10-06T05:53:29.540Z,3.70
2018-10-06T05:55:57.891Z,3.40
2018-10-06T05:58:26.222Z,3.77
2018-10-06T06:00:54.588Z,3.60
2018-10-06T06:03:22.914Z,3.93
2018-10-06T06:05:51.359Z,3.87
2018-10-06T06:08:19.762Z,3.40
2018-10-06T06:10:48.134Z,3.50
2018-10-06T06:13:17.098Z,3.80
2018-10-06T06:15:45.749Z,3.47
2018-10-06T06:18:13.904Z,3.80
2018-10-06T06:20:42.258Z,3.50
2018-10-06T06:23:10.626Z,4.67
2018-10-06T06:25:39.179Z,4.50
2018-10-06T06:28:07.469Z,4.10
2018-10-06T06:30:36.724Z,4.33
2018-10-06T06:33:05.556Z,4.60
2018-10-06T06:35:33.941Z,3.90
2018-10-06T06:38:02.330Z,5.37
2018-10-06T06:40:30.758Z,5.00
2018-10-06T06:42:59.170Z,4.53
2018-10-06T06:45:27.486Z,4.73
2018-10-06T06:47:56.154Z,4.90
2018-10-06T06:50:24.610Z,5.33
2018-10-06T06:52:53.001Z,5.30
2018-10-06T06:55:21.424Z,5.47
2018-10-06T06:57:49.710Z,5.10
2018-10-06T07:00:18.042Z,5.77
2018-10-06T07:02:46.645Z,6.00
2018-10-06T07:05:16.402Z,5.00
2018-10-06T07:07:44.678Z,5.47
2018-10-06T07:10:13.318Z,4.83
2018-10-06T07:12:41.827Z,6.00
2018-10-06T07:15:10.188Z,6.20
2018-10-06T07:17:38.686Z,5.53
2018-10-06T07:20:06.990Z,5.23
2018-10-06T07:22:35.287Z,6.57
2018-10-06T07:25:03.662Z,5.57
2018-10-06T07:27:32.015Z,5.47
2018-10-06T07:30:00.315Z,5.63
2018-10-06T07:32:28.762Z,5.93
2018-10-06T07:34:57.159Z,5.40
2018-10-06T07:37:25.446Z,5.57
2018-10-06T07:39:54.135Z,7.53
2018-10-06T07:42:22.664Z,9.07
2018-10-06T07:44:51.008Z,6.63
2018-10-06T07:47:19.556Z,5.97
2018-10-06T07:49:47.977Z,5.77
2018-10-06T07:52:16.422Z,5.97
2018-10-06T07:54:44.867Z,4.53
2018-10-06T07:57:13.152Z,4.43
2018-10-06T07:59:41.433Z,4.17
2018-10-06T08:02:09.793Z,4.40
2018-10-06T08:04:38.134Z,6.70
2018-10-06T08:07:06.825Z,4.93
2018-10-06T08:09:35.318Z,5.37
2018-10-06T08:12:03.802Z,5.10
2018-10-06T08:14:32.231Z,4.30
2018-10-06T08:17:00.781Z,4.93
2018-10-06T08:19:29.526Z,4.53
2018-10-06T08:21:57.938Z,4.63
2018-10-06T08:24:26.298Z,3.93
2018-10-06T08:26:54.718Z,4.33
2018-10-06T08:29:23.038Z,5.43
2018-10-06T08:31:51.470Z,4.83
2018-10-06T08:34:19.798Z,5.30
2018-10-06T08:36:48.190Z,5.47
2018-10-06T08:39:16.591Z,4.03
2018-10-06T08:41:44.883Z,3.67
2018-10-06T08:44:13.228Z,4.00
2018-10-06T08:46:41.723Z,3.80
2018-10-06T08:49:10.160Z,4.03
2018-10-06T08:51:38.547Z,3.53
2018-10-06T08:54:07.261Z,3.33
2018-10-06T08:56:35.610Z,3.30
2018-10-06T08:59:03.987Z,3.27
2018-10-06T09:01:32.294Z,3.43
2018-10-06T09:04:00.635Z,4.30
2018-10-06T09:06:29.010Z,3.97
2018-10-06T09:08:57.519Z,4.17
2018-10-06T09:11:25.901Z,4.40
2018-10-06T09:13:54.251Z,3.97
2018-10-06T09:16:22.740Z,4.50
2018-10-06T09:18:51.120Z,3.90
2018-10-06T09:21:19.429Z,3.90
2018-10-06T09:23:47.803Z,4.40
2018-10-06T09:26:16.176Z,5.13
2018-10-06T09:28:44.543Z,4.03
2018-10-06T09:31:12.975Z,4.40
2018-10-06T09:33:42.289Z,3.97
2018-10-06T09:36:10.575Z,4.67
2018-10-06T09:38:39.181Z,3.33
2018-10-06T09:41:08.149Z,3.33
2018-10-06T09:43:36.459Z,3.60
2018-10-06T09:46:04.817Z,3.20
2018-10-06T09:48:33.083Z,3.30
2018-10-06T09:51:01.689Z,3.47
2018-10-06T09:53:30.541Z,3.47
2018-10-06T09:55:58.857Z,8.10
2018-10-06T09:58:27.225Z,3.83
2018-10-06T10:01:00.968Z,4.20
2018-10-06T10:03:34.469Z,3.60
2018-10-06T10:06:02.913Z,3.50
2018-10-06T10:08:31.289Z,3.80
2018-10-06T10:10:59.773Z,3.30
2018-10-06T10:13:28.201Z,3.23
2018-10-06T10:15:56.543Z,4.53
2018-10-06T10:18:24.982Z,5.30
2018-10-06T10:20:53.219Z,4.20
2018-10-06T10:23:21.603Z,3.70
2018-10-06T10:25:50.113Z,4.00
2018-10-06T10:28:18.467Z,4.20
2018-10-06T10:30:46.822Z,4.67
2018-10-06T10:33:15.129Z,3.53
2018-10-06T10:35:43.675Z,2.67
2018-10-06T10:38:12.061Z,3.20
2018-10-06T10:40:40.389Z,2.93
2018-10-06T10:43:08.946Z,3.43
2018-10-06T10:45:37.270Z,4.13
2018-10-06T10:48:05.899Z,3.07
2018-10-06T10:50:34.406Z,3.40
2018-10-06T10:53:02.644Z,3.03
2018-10-06T10:55:31.082Z,3.00
2018-10-06T10:57:59.580Z,2.87
2018-10-06T11:00:27.977Z,2.73
2018-10-06T11:02:56.227Z,2.77
2018-10-06T11:05:24.642Z,2.93
2018-10-06T11:07:52.961Z,3.03
2018-10-06T11:10:21.545Z,2.87
2018-10-06T11:12:49.974Z,2.50
2018-10-06T11:15:18.354Z,2.60
2018-10-06T11:17:46.890Z,2.63
2018-10-06T11:20:15.377Z,2.43
2018-10-06T11:22:43.665Z,2.57
2018-10-06T11:25:11.951Z,2.70
2018-10-06T11:27:40.411Z,3.10
2018-10-06T11:30:08.735Z,2.77
2018-10-06T11:32:37.019Z,2.23
2018-10-06T11:35:05.463Z,2.40
2018-10-06T11:37:33.804Z,10.53
2018-10-06T11:40:02.132Z,3.90
2018-10-06T11:42:30.433Z,3.37
2018-10-06T11:44:58.727Z,3.30
2018-10-06T11:47:27.066Z,1.97
2018-10-06T11:49:55.511Z,2.33
2018-10-06T11:52:23.783Z,2.20
2018-10-06T11:54:52.165Z,2.50
2018-10-06T11:57:20.809Z,3.20
2018-10-06T11:59:49.208Z,2.30
2018-10-06T12:02:17.670Z,3.43
2018-10-06T12:04:46.117Z,2.20
2018-10-06T12:07:14.612Z,2.23
2018-10-06T12:09:42.961Z,2.67
2018-10-06T12:12:11.269Z,2.53
2018-10-06T12:14:39.798Z,2.70
2018-10-06T12:17:08.095Z,4.97
2018-10-06T12:19:36.499Z,3.30
2018-10-06T12:22:04.841Z,2.80
2018-10-06T12:24:33.236Z,1.97
2018-10-06T12:27:01.561Z,2.53
2018-10-06T12:29:29.859Z,10.87
2018-10-06T12:31:58.263Z,9.60
2018-10-06T12:34:26.579Z,3.07
2018-10-06T12:36:54.905Z,2.40
2018-10-06T12:39:23.291Z,3.37
2018-10-06T12:41:51.716Z,8.33
2018-10-06T12:44:20.045Z,2.33
2018-10-06T12:46:48.433Z,2.90
2018-10-06T12:49:17.053Z,1.87
2018-10-06T12:51:45.400Z,1.70
2018-10-06T12:54:13.770Z,2.70
2018-10-06T12:56:42.111Z,1.70
2018-10-06T12:59:10.567Z,2.97
2018-10-06T13:01:38.985Z,2.20
2018-10-06T13:04:07.609Z,2.83
2018-10-06T13:06:35.980Z,2.10
2018-10-06T13:09:05.901Z,2.57
2018-10-06T13:11:35.063Z,2.70
2018-10-06T13:14:03.366Z,2.10
2018-10-06T13:16:31.737Z,2.87
2018-10-06T13:19:00.146Z,5.30
2018-10-06T13:21:28.561Z,4.00
2018-10-06T13:23:57.190Z,5.40
2018-10-06T13:26:25.768Z,2.67
2018-10-06T13:28:54.135Z,2.90
2018-10-06T13:31:22.531Z,2.40
2018-10-06T13:33:51.047Z,2.20
2018-10-06T13:36:19.370Z,2.40
2018-10-06T13:38:47.719Z,2.70
2018-10-06T13:41:16.075Z,1.90
2018-10-06T13:43:44.399Z,2.40
2018-10-06T13:46:12.712Z,1.90
2018-10-06T13:48:41.134Z,3.00
2018-10-06T13:51:09.616Z,1.90
2018-10-06T13:53:37.921Z,11.27
2018-10-06T13:56:06.827Z,9.93
2018-10-06T13:58:35.186Z,5.30
2018-10-06T14:01:03.593Z,2.60
2018-10-06T14:03:32.184Z,2.10
2018-10-06T14:06:00.717Z,2.13
2018-10-06T14:08:29.007Z,1.83
2018-10-06T14:10:57.399Z,2.30
2018-10-06T14:13:25.768Z,2.23
2018-10-06T14:15:54.138Z,2.43
2018-10-06T14:18:22.546Z,2.30
2018-10-06T14:20:50.898Z,2.30
2018-10-06T14:23:19.282Z,3.20
2018-10-06T14:25:47.722Z,15.77
2018-10-06T14:28:16.038Z,2.10
2018-10-06T14:30:44.415Z,1.90
2018-10-06T14:33:12.956Z,2.00
2018-10-06T14:35:41.250Z,2.03
2018-10-06T14:38:09.575Z,1.87
2018-10-06T14:40:38.001Z,2.07
2018-10-06T14:43:06.409Z,5.30
2018-10-06T14:45:46.737Z,11.43
2018-10-06T14:48:15.235Z,6.23
2018-10-06T14:50:45.077Z,2.70
2018-10-06T14:53:13.573Z,3.23
2018-10-06T14:55:41.939Z,2.00
2018-10-06T14:58:10.306Z,1.80
2018-10-06T15:00:38.706Z,2.53
2018-10-06T15:03:07.073Z,3.10
2018-10-06T15:05:35.431Z,2.37
2018-10-06T15:08:03.783Z,2.20
2018-10-06T15:10:32.081Z,2.20
2018-10-06T15:13:00.564Z,5.80
2018-10-06T15:15:28.879Z,4.60
2018-10-06T15:17:57.347Z,2.80
2018-10-06T15:20:25.794Z,2.90
2018-10-06T15:22:54.539Z,2.97
2018-10-06T15:25:22.983Z,2.90
2018-10-06T15:27:51.367Z,3.10
2018-10-06T15:30:19.767Z,2.30
2018-10-06T15:32:48.182Z,2.90
2018-10-06T15:35:16.494Z,3.30
2018-10-06T15:37:44.929Z,2.47
2018-10-06T15:40:13.356Z,3.30
2018-10-06T15:42:41.751Z,2.33
2018-10-06T15:45:10.146Z,2.40
2018-10-06T15:47:39.305Z,2.87
2018-10-06T15:50:07.746Z,2.80
2018-10-06T15:52:36.186Z,2.77
2018-10-06T15:55:04.679Z,2.70
2018-10-06T15:57:33.338Z,3.13
2018-10-06T16:00:01.735Z,2.80
2018-10-06T16:02:30.134Z,2.70
2018-10-06T16:04:58.421Z,2.70
2018-10-06T16:07:26.843Z,3.23
2018-10-06T16:09:55.221Z,2.77
2018-10-06T16:12:24.989Z,3.30
2018-10-06T16:14:53.495Z,4.67
2018-10-06T16:17:22.182Z,5.50
2018-10-06T16:19:50.619Z,5.30
2018-10-06T16:22:19.198Z,4.10
2018-10-06T16:24:47.727Z,4.90
2018-10-06T16:27:16.053Z,4.70
2018-10-06T16:29:44.527Z,4.57
2018-10-06T16:32:12.899Z,8.80
2018-10-06T16:34:48.239Z,6.50
2018-10-06T16:37:16.515Z,6.90
2018-10-06T16:39:44.963Z,4.87
2018-10-06T16:42:13.367Z,5.40
2018-10-06T16:44:41.743Z,4.27
2018-10-06T16:47:10.142Z,4.63
2018-10-06T16:49:38.919Z,6.00
2018-10-06T16:52:07.354Z,4.40
2018-10-06T16:54:35.898Z,4.63
2018-10-06T16:57:04.281Z,5.87
2018-10-06T16:59:32.863Z,4.70
2018-10-06T17:02:01.492Z,5.87
2018-10-06T17:04:29.684Z,3.20
2018-10-06T17:06:58.097Z,2.90
2018-10-06T17:09:26.654Z,3.60
2018-10-06T17:11:55.150Z,3.43
2018-10-06T17:14:23.595Z,3.70
2018-10-06T17:16:51.991Z,3.40
2018-10-06T17:19:20.601Z,3.30
2018-10-06T17:21:48.907Z,2.90
2018-10-06T17:24:17.260Z,3.10
2018-10-06T17:26:45.617Z,3.40
2018-10-06T17:29:14.127Z,3.00
2018-10-06T17:31:42.539Z,3.10
2018-10-06T17:34:11.060Z,2.63
2018-10-06T17:36:39.425Z,3.77
2018-10-06T17:39:08.055Z,3.57
2018-10-06T17:41:36.412Z,4.60
2018-10-06T17:44:04.883Z,5.07
2018-10-06T17:46:34.563Z,4.37
2018-10-06T17:49:02.885Z,3.40
2018-10-06T17:51:31.363Z,3.70
2018-10-06T17:53:59.709Z,3.70
2018-10-06T17:56:28.129Z,9.70
2018-10-06T17:58:56.616Z,5.60
2018-10-06T18:01:25.744Z,3.10
2018-10-06T18:03:54.206Z,3.40
2018-10-06T18:06:22.741Z,3.47
2018-10-06T18:08:51.343Z,3.60
2018-10-06T18:11:19.739Z,3.37
2018-10-06T18:13:48.027Z,3.07
2018-10-06T18:16:16.525Z,4.13
2018-10-06T18:18:44.947Z,4.30
2018-10-06T18:21:13.566Z,3.37
2018-10-06T18:23:41.775Z,2.87
2018-10-06T18:26:10.314Z,2.87
2018-10-06T18:28:39.091Z,4.90
2018-10-06T18:31:07.429Z,4.37
2018-10-06T18:33:36.158Z,3.00
2018-10-06T18:36:04.623Z,3.50
2018-10-06T18:38:32.997Z,3.17
2018-10-06T18:41:01.735Z,3.20
2018-10-06T18:43:30.101Z,3.50
2018-10-06T18:45:58.583Z,4.00
2018-10-06T18:48:27.229Z,4.00
2018-10-06T18:50:55.740Z,4.07
2018-10-06T18:53:24.158Z,4.30
2018-10-06T18:55:52.605Z,4.00
2018-10-06T18:58:20.927Z,4.50
2018-10-06T19:00:49.399Z,4.20
2018-10-06T19:03:18.246Z,4.57
2018-10-06T19:05:46.483Z,3.90
2018-10-06T19:08:14.845Z,3.70
2018-10-06T19:10:43.281Z,3.80
2018-10-06T19:13:11.699Z,4.20
2018-10-06T19:15:40.244Z,4.67
2018-10-06T19:18:08.519Z,4.33
2018-10-06T19:20:36.799Z,4.90
2018-10-06T19:23:05.155Z,4.50
2018-10-06T19:25:33.594Z,4.67
2018-10-06T19:28:01.982Z,4.77
2018-10-06T19:30:30.354Z,4.87
2018-10-06T19:32:59.028Z,5.60
2018-10-06T19:35:27.329Z,4.97
2018-10-06T19:37:55.697Z,4.17
2018-10-06T19:40:24.576Z,3.50
2018-10-06T19:42:52.882Z,4.00
2018-10-06T19:45:21.321Z,4.13
2018-10-06T19:47:49.859Z,4.10
2018-10-06T19:50:18.205Z,3.97
2018-10-06T19:52:46.781Z,4.00
2018-10-06T19:55:15.489Z,4.30
2018-10-06T19:57:43.789Z,4.60
2018-10-06T20:00:12.136Z,3.67
2018-10-06T20:02:40.681Z,4.43
2018-10-06T20:05:09.199Z,4.13
2018-10-06T20:07:37.707Z,4.37
2018-10-06T20:10:06.321Z,3.33
2018-10-06T20:12:34.787Z,3.33
2018-10-06T20:15:03.013Z,4.07
2018-10-06T20:17:31.584Z,4.20
2018-10-06T20:20:00.180Z,3.97
2018-10-06T20:22:28.559Z,4.87
2018-10-06T20:24:56.988Z,3.90
2018-10-06T20:27:25.330Z,4.20
2018-10-06T20:29:53.862Z,4.67
2018-10-06T20:32:22.218Z,5.20
2018-10-06T20:34:50.565Z,4.90
2018-10-06T20:37:18.954Z,5.83
2018-10-06T20:39:47.358Z,6.80
2018-10-06T20:42:15.877Z,10.97
2018-10-06T20:44:44.173Z,9.90
2018-10-06T20:47:12.793Z,10.87
2018-10-06T20:49:41.229Z,11.83
2018-10-06T20:52:09.629Z,9.43
2018-10-06T20:54:38.104Z,10.50
2018-10-06T20:57:06.666Z,9.23
2018-10-06T20:59:35.135Z,9.33
2018-10-06T21:02:03.688Z,5.23
2018-10-06T21:04:32.055Z,5.13
2018-10-06T21:07:00.487Z,4.30
2018-10-06T21:09:28.802Z,4.07
2018-10-06T21:11:57.354Z,4.07
2018-10-06T21:14:25.632Z,3.50
2018-10-06T21:16:54.517Z,3.63
2018-10-06T21:19:22.803Z,3.70
2018-10-06T21:21:51.177Z,3.67
2018-10-06T21:24:20.344Z,3.90
2018-10-06T21:26:48.645Z,3.40
2018-10-06T21:29:17.046Z,3.73
2018-10-06T21:31:45.475Z,3.60
2018-10-06T21:34:13.797Z,3.40
2018-10-06T21:36:42.082Z,3.57
2018-10-06T21:39:10.666Z,3.40
2018-10-06T21:41:39.122Z,3.47
2018-10-06T21:44:07.378Z,3.73
2018-10-06T21:46:35.776Z,3.70
2018-10-06T21:49:04.054Z,3.30
2018-10-06T21:51:32.337Z,3.37
2018-10-06T21:54:00.838Z,3.30
2018-10-06T21:56:29.326Z,3.57
2018-10-06T21:58:57.698Z,3.93
2018-10-06T22:01:26.076Z,3.70
2018-10-06T22:03:54.622Z,3.70
2018-10-06T22:06:23.004Z,4.30
2018-10-06T22:08:54.637Z,3.70
2018-10-06T22:11:23.078Z,4.07
2018-10-06T22:13:51.561Z,4.30
2018-10-06T22:16:20.182Z,4.50
2018-10-06T22:18:49.044Z,4.43
2018-10-06T22:21:17.467Z,4.37
2018-10-06T22:23:45.818Z,4.87
2018-10-06T22:26:14.141Z,4.93
2018-10-06T22:28:42.518Z,4.33
2018-10-06T22:31:10.917Z,4.70
2018-10-06T22:33:39.191Z,4.63
2018-10-06T22:36:07.523Z,4.97
2018-10-06T22:38:35.869Z,4.80
2018-10-06T22:41:04.275Z,4.33
2018-10-06T22:43:32.664Z,5.20
2018-10-06T22:46:00.991Z,4.93
2018-10-06T22:48:29.581Z,4.30
2018-10-06T22:50:58.011Z,5.67
2018-10-06T22:53:26.635Z,4.77
2018-10-06T22:55:55.098Z,4.90
2018-10-06T22:58:23.538Z,6.03
2018-10-06T23:00:52.073Z,5.43
2018-10-06T23:03:20.532Z,4.93
2018-10-06T23:05:49.026Z,5.30
2018-10-06T23:08:17.423Z,4.77
2018-10-06T23:10:45.782Z,5.10
2018-10-06T23:13:14.250Z,4.80
2018-10-06T23:15:42.794Z,4.37
2018-10-06T23:18:11.074Z,4.53
2018-10-06T23:20:39.538Z,5.50
2018-10-06T23:23:07.978Z,4.40
2018-10-06T23:25:36.344Z,4.60
2018-10-06T23:28:04.841Z,4.37
2018-10-06T23:30:33.417Z,4.60
2018-10-06T23:33:01.993Z,4.93
2018-10-06T23:35:30.429Z,4.37
2018-10-06T23:37:59.204Z,4.20
2018-10-06T23:40:27.643Z,4.63
2018-10-06T23:42:56.215Z,7.50
2018-10-06T23:45:24.720Z,11.70
2018-10-06T23:47:53.102Z,10.60
2018-10-06T23:50:21.613Z,9.80
2018-10-06T23:52:50.262Z,9.50
2018-10-06T23:55:18.639Z,7.77
2018-10-06T23:57:47.071Z,8.73
